Time;durP1;ratioP1;P1;durP2;ratioP2;P2;SDS_P1;SDS_P2;PMS_P1;PMS_P2;Temp;Humidity;BMP_temperature;BMP_pressure;BME280_temperature;BME280_humidity;BME280_pressure;Samples;Min_cycle;Max_cycle;Signal;HPM_P1;HPM_P2
2022/10/16 00:01:38;;;;;;;6.03;2.17;;;;;;;17.89;58.00;100937.94;6237469;22;20475;-72
2022/10/16 00:04:04;;;;;;;5.25;2.28;;;;;;;17.74;58.41;100936.41;6217479;22;20015;-72
2022/10/16 00:06:30;;;;;;;6.93;2.20;;;;;;;17.91;57.85;100936.16;6247693;22;20390;-72
2022/10/16 00:08:56;;;;;;;6.97;2.20;;;;;;;17.93;57.53;100937.00;6210510;22;20498;-72
2022/10/16 00:11:32;;;;;;;5.93;1.88;;;;;;;17.97;57.47;100939.56;6245051;22;20007;-73
2022/10/16 00:13:59;;;;;;;5.45;2.10;;;;;;;17.94;57.20;100946.63;6241817;22;20120;-73
2022/10/16 00:16:25;;;;;;;3.65;1.55;;;;;;;18.21;56.30;100944.44;6220160;22;20272;-72
2022/10/16 00:18:51;;;;;;;5.35;1.48;;;;;;;18.08;56.59;100942.03;6247120;22;20070;-73
2022/10/16 00:21:20;;;;;;;4.63;1.45;;;;;;;18.17;56.63;100948.03;6241495;22;20364;-74
2022/10/16 00:23:45;;;;;;;5.35;1.45;;;;;;;18.21;56.41;100946.22;6246118;22;20396;-72
2022/10/16 00:26:16;;;;;;;2.88;1.40;;;;;;;18.18;56.36;100947.13;6242449;22;20091;-73
2022/10/16 00:28:41;;;;;;;2.10;1.30;;;;;;;18.06;57.09;100923.56;6245057;22;20066;-73
2022/10/16 00:31:10;;;;;;;2.97;1.23;;;;;;;18.24;56.45;100931.19;6246400;22;20428;-73
2022/10/16 00:33:37;;;;;;;2.70;1.20;;;;;;;18.23;56.21;100928.59;6238637;22;20011;-72
2022/10/16 00:36:04;;;;;;;5.10;1.30;;;;;;;17.92;56.72;100922.06;6246504;22;20410;-72
2022/10/16 00:38:30;;;;;;;2.10;1.13;;;;;;;17.85;56.98;100923.94;6216884;22;20017;-73
2022/10/16 00:40:55;;;;;;;2.70;1.20;;;;;;;17.89;56.90;100916.81;6218905;22;20004;-73
2022/10/16 00:43:47;;;;;;;1.60;1.00;;;;;;;18.03;56.63;100921.00;6246455;22;20008;-71
2022/10/16 00:46:12;;;;;;;4.00;1.20;;;;;;;18.22;56.13;100918.94;6249654;22;20007;-72
2022/10/16 00:48:37;;;;;;;1.45;0.93;;;;;;;18.03;56.89;100923.63;6249635;22;20264;-72
2022/10/16 00:51:05;;;;;;;4.03;1.20;;;;;;;18.20;56.71;100920.72;6240803;22;20182;-73
2022/10/16 00:53:32;;;;;;;4.47;1.00;;;;;;;18.29;56.54;100927.59;6243106;22;20004;-72
2022/10/16 00:55:58;;;;;;;1.65;0.98;;;;;;;18.05;57.70;100929.75;6243053;22;20339;-73
2022/10/16 00:58:23;;;;;;;2.78;1.00;;;;;;;18.09;57.74;100926.16;6248927;22;20004;-72
2022/10/16 01:00:49;;;;;;;2.40;1.00;;;;;;;18.12;57.16;100918.19;6244059;22;20591;-73
2022/10/16 01:03:34;;;;;;;1.50;0.90;;;;;;;18.08;58.01;100928.81;6239186;22;20011;-73
2022/10/16 01:06:10;;;;;;;1.50;0.88;;;;;;;18.28;57.28;100937.28;6221503;22;20019;-73
2022/10/16 01:08:58;;;;;;;4.18;1.05;;;;;;;18.25;57.93;100942.59;6240745;22;20462;-73
2022/10/16 01:11:38;;;;;;;1.60;0.90;;;;;;;18.10;58.19;100941.13;6241183;22;20004;-73
2022/10/16 01:14:19;;;;;;;4.05;1.25;;;;;;;17.81;59.11;100941.53;6241304;22;20016;-73
2022/10/16 01:16:52;;;;;;;2.53;1.10;;;;;;;18.02;58.78;100937.72;6248823;22;20011;-72
2022/10/16 01:19:42;;;;;;;3.75;1.35;;;;;;;18.02;58.79;100934.19;6251554;22;19999;-72
2022/10/16 01:22:09;;;;;;;2.65;1.20;;;;;;;17.94;59.34;100934.31;6247149;22;20082;-72
2022/10/16 01:24:40;;;;;;;3.75;1.40;;;;;;;17.87;59.98;100937.09;6216474;22;20378;-71
2022/10/16 01:27:25;;;;;;;3.65;1.30;;;;;;;17.78;60.33;100935.47;6242885;22;20007;-73
2022/10/16 01:30:16;;;;;;;2.58;1.20;;;;;;;17.63;61.30;100936.53;6249083;22;20067;-72
2022/10/16 01:33:09;;;;;;;2.38;1.20;;;;;;;17.53;61.37;100940.19;6241687;22;20046;-72
2022/10/16 01:35:38;;;;;;;2.70;1.52;;;;;;;17.43;61.75;100944.72;6241820;22;20010;-73
2022/10/16 01:38:07;;;;;;;3.90;1.50;;;;;;;17.23;62.83;100957.28;6244896;22;20062;-73
2022/10/16 01:40:36;;;;;;;3.85;1.40;;;;;;;17.18;63.38;100951.19;6247408;22;20355;-73
2022/10/16 01:43:31;;;;;;;2.83;1.30;;;;;;;17.39;62.53;100956.19;6247240;22;20353;-72
2022/10/16 01:45:58;;;;;;;2.08;1.20;;;;;;;17.26;63.16;100951.94;6250198;22;20011;-74
2022/10/16 01:48:24;;;;;;;4.28;1.30;;;;;;;17.30;62.83;100950.16;6248326;22;20008;-73
2022/10/16 01:51:05;;;;;;;3.35;1.35;;;;;;;17.44;62.07;100951.72;6246346;22;20441;-72
2022/10/16 01:53:32;;;;;;;3.17;1.15;;;;;;;17.49;61.88;100949.03;6238311;22;20469;-73
2022/10/16 01:56:00;;;;;;;2.90;1.20;;;;;;;17.53;62.25;100949.84;6245704;22;20523;-73
2022/10/16 01:58:27;;;;;;;2.28;1.15;;;;;;;17.52;61.97;100958.66;6219614;22;20011;-72
2022/10/16 02:00:54;;;;;;;1.65;1.08;;;;;;;17.40;62.39;100962.31;6220084;22;20014;-72
2022/10/16 02:03:20;;;;;;;2.40;1.30;;;;;;;17.31;63.18;100958.06;6237890;22;20015;-73
2022/10/16 02:05:54;;;;;;;3.85;1.40;;;;;;;17.36;62.94;100968.53;6219615;22;20019;-73
2022/10/16 02:08:22;;;;;;;2.40;1.40;;;;;;;17.24;63.51;100963.44;6246363;22;20446;-72
2022/10/16 02:10:48;;;;;;;3.13;1.30;;;;;;;17.39;63.09;100966.72;6251580;22;20445;-73
2022/10/16 02:13:21;;;;;;;2.03;1.40;;;;;;;17.33;63.47;100963.28;6244062;22;20107;-74
2022/10/16 02:15:47;;;;;;;3.30;1.52;;;;;;;17.06;63.68;100963.66;6240451;22;20011;-72
2022/10/16 02:18:13;;;;;;;2.53;1.40;;;;;;;17.28;63.32;100960.72;6247827;22;20031;-73
2022/10/16 02:21:11;;;;;;;3.20;1.58;;;;;;;17.22;63.75;100960.81;6244575;22;20495;-72
2022/10/16 02:23:52;;;;;;;4.15;1.80;;;;;;;17.18;63.97;100961.75;6205322;22;20429;-73
2022/10/16 02:26:27;;;;;;;2.40;1.50;;;;;;;17.32;63.38;100966.84;6243277;22;20021;-73
2022/10/16 02:28:58;;;;;;;2.65;1.83;;;;;;;17.43;63.25;100964.94;6248171;22;20003;-73
2022/10/16 02:31:28;;;;;;;3.35;1.70;;;;;;;17.39;63.06;100964.09;6236958;22;20573;-72
2022/10/16 02:33:57;;;;;;;4.57;1.80;;;;;;;17.25;63.84;100968.69;6245563;22;20003;-72
2022/10/16 02:36:23;;;;;;;2.97;1.80;;;;;;;17.19;63.76;100960.84;6249516;22;20022;-71
2022/10/16 02:38:49;;;;;;;4.43;1.95;;;;;;;17.12;64.21;100971.47;6245510;22;20502;-73
2022/10/16 02:41:15;;;;;;;6.28;1.70;;;;;;;17.20;63.78;100967.84;6250517;22;20004;-72
2022/10/16 02:43:40;;;;;;;3.15;1.85;;;;;;;17.03;64.39;100972.44;6237902;22;20069;-72
2022/10/16 02:46:06;;;;;;;4.53;1.77;;;;;;;16.86;64.69;100979.66;6220921;22;20007;-72
2022/10/16 02:48:31;;;;;;;3.30;1.63;;;;;;;16.99;64.41;100974.25;6249605;22;20045;-72
2022/10/16 02:50:57;;;;;;;4.07;1.85;;;;;;;16.90;64.61;100982.25;6247419;22;20012;-73
2022/10/16 02:53:23;;;;;;;6.35;1.70;;;;;;;16.90;64.83;100976.97;6242105;22;20011;-72
2022/10/16 02:55:48;;;;;;;4.05;1.80;;;;;;;16.91;64.56;100975.22;6245003;22;20453;-73
2022/10/16 02:58:13;;;;;;;3.83;1.55;;;;;;;16.81;65.23;100986.75;6249588;22;20007;-73
2022/10/16 03:00:39;;;;;;;3.28;1.63;;;;;;;17.00;64.20;100985.66;6248999;22;20080;-73
2022/10/16 03:03:04;;;;;;;3.65;1.77;;;;;;;16.97;64.71;100989.19;6243467;22;20034;-73
2022/10/16 03:05:29;;;;;;;2.72;1.55;;;;;;;17.01;64.25;100977.75;6244147;22;20058;-72
2022/10/16 03:07:55;;;;;;;4.35;1.67;;;;;;;16.96;64.42;100973.41;6242345;22;20375;-73
2022/10/16 03:10:20;;;;;;;3.97;1.60;;;;;;;16.74;65.47;100978.03;6220346;22;20003;-72
2022/10/16 03:12:46;;;;;;;4.50;1.58;;;;;;;16.80;65.39;100985.88;6246262;22;20007;-72
2022/10/16 03:15:11;;;;;;;6.85;1.60;;;;;;;16.92;65.20;100988.38;6244450;22;20012;-73
2022/10/16 03:17:36;;;;;;;4.30;1.38;;;;;;;17.00;65.24;100980.41;6244435;22;20004;-72
2022/10/16 03:20:03;;;;;;;4.97;1.55;;;;;;;16.87;65.41;100984.03;6244529;22;20073;-73
2022/10/16 03:22:28;;;;;;;2.63;1.33;;;;;;;16.86;65.77;100988.44;6248308;22;20000;-74
2022/10/16 03:24:54;;;;;;;5.13;1.33;;;;;;;17.08;64.91;100996.13;6247368;22;20446;-72
2022/10/16 03:27:19;;;;;;;4.20;1.40;;;;;;;17.27;63.97;101001.13;6242903;22;20018;-72
2022/10/16 03:29:44;;;;;;;5.68;1.45;;;;;;;17.25;64.30;101002.94;6246097;22;20419;-72
2022/10/16 03:32:10;;;;;;;3.30;1.45;;;;;;;17.12;64.64;101000.44;6246621;22;20007;-73
2022/10/16 03:34:36;;;;;;;3.70;1.27;;;;;;;17.04;65.31;101006.69;6247650;22;20095;-73
2022/10/16 03:37:01;;;;;;;2.42;1.20;;;;;;;17.23;64.54;101004.72;6250629;22;20710;-74
2022/10/16 03:39:27;;;;;;;2.63;1.30;;;;;;;17.39;63.99;101006.25;6245012;22;20012;-73
2022/10/16 03:41:52;;;;;;;2.30;1.40;;;;;;;17.31;64.32;101000.22;6249009;22;20010;-73
2022/10/16 03:44:17;;;;;;;3.22;1.40;;;;;;;17.42;63.72;101010.63;6240388;22;20035;-72
2022/10/16 03:46:43;;;;;;;3.20;1.25;;;;;;;17.28;64.10;101013.41;6250528;22;20112;-73
2022/10/16 03:49:08;;;;;;;3.35;1.20;;;;;;;17.42;63.79;101019.41;6250737;22;20511;-71
2022/10/16 03:51:33;;;;;;;3.72;1.50;;;;;;;17.52;63.44;101011.38;6241419;22;20459;-73
2022/10/16 03:53:59;;;;;;;4.03;1.40;;;;;;;17.28;63.91;101021.31;6247896;22;20416;-73
2022/10/16 03:56:24;;;;;;;4.32;1.27;;;;;;;17.40;63.78;101017.66;6244794;22;20011;-72
2022/10/16 03:58:49;;;;;;;3.38;1.58;;;;;;;17.34;63.93;101023.00;6247324;22;20004;-72
2022/10/16 04:01:15;;;;;;;3.67;1.50;;;;;;;17.02;64.96;101026.88;6248630;22;19999;-73
2022/10/16 04:03:40;;;;;;;3.72;1.60;;;;;;;17.29;63.88;101030.09;6240338;22;20008;-75
2022/10/16 04:06:06;;;;;;;2.20;1.27;;;;;;;17.15;64.64;101038.16;6249670;22;20425;-74
2022/10/16 04:08:34;;;;;;;4.72;1.50;;;;;;;17.12;64.89;101035.56;6216408;22;20526;-72
2022/10/16 04:11:00;;;;;;;7.07;1.67;;;;;;;17.27;64.65;101031.88;6249967;22;19999;-73
2022/10/16 04:13:26;;;;;;;9.48;1.45;;;;;;;17.23;64.66;101040.72;6239231;22;20015;-73
2022/10/16 04:15:51;;;;;;;3.60;1.30;;;;;;;17.34;64.78;101041.47;6221418;22;20008;-73
2022/10/16 04:18:16;;;;;;;4.30;1.48;;;;;;;17.33;64.80;101045.84;6248089;22;20073;-72
2022/10/16 04:20:42;;;;;;;3.88;1.40;;;;;;;17.44;64.25;101046.59;6245420;22;20007;-74
2022/10/16 04:23:07;;;;;;;2.95;1.48;;;;;;;17.35;64.62;101038.81;6247696;22;20095;-73
2022/10/16 04:25:32;;;;;;;4.45;1.45;;;;;;;17.33;64.57;101048.50;6239121;22;20011;-74
2022/10/16 04:27:58;;;;;;;5.45;1.50;;;;;;;17.42;64.65;101052.81;6248103;22;20007;-73
2022/10/16 04:30:23;;;;;;;3.97;1.65;;;;;;;17.15;65.16;101058.34;6247026;22;20063;-73
2022/10/16 04:32:52;;;;;;;3.78;1.50;;;;;;;17.20;65.30;101072.38;6241669;22;20030;-72
2022/10/16 04:35:19;;;;;;;4.25;1.70;;;;;;;17.23;65.31;101060.03;6250018;22;20000;-73
2022/10/16 04:37:45;;;;;;;3.17;1.50;;;;;;;17.15;65.54;101071.53;6214293;22;20149;-74
2022/10/16 04:40:11;;;;;;;5.15;1.60;;;;;;;17.21;65.43;101071.47;6246951;22;20634;-73
2022/10/16 04:42:36;;;;;;;3.30;1.40;;;;;;;17.18;65.36;101079.41;6247283;22;20004;-73
2022/10/16 04:45:02;;;;;;;6.50;1.60;;;;;;;17.20;65.76;101085.56;6243628;22;20069;-73
2022/10/16 04:47:27;;;;;;;4.03;1.23;;;;;;;17.21;65.51;101095.19;6218289;22;20014;-73
2022/10/16 04:49:53;;;;;;;2.80;1.40;;;;;;;17.27;65.54;101101.25;6245095;22;20339;-72
2022/10/16 04:52:18;;;;;;;4.05;1.60;;;;;;;17.23;65.92;101096.94;6248018;22;20077;-73
2022/10/16 04:54:44;;;;;;;4.05;1.70;;;;;;;17.35;65.60;101114.38;6218440;22;20088;-73
2022/10/16 04:57:11;;;;;;;4.93;1.60;;;;;;;17.36;65.45;101109.09;6243191;22;20008;-73
2022/10/16 04:59:36;;;;;;;4.97;2.00;;;;;;;17.21;66.13;101113.63;6244202;22;20007;-73
2022/10/16 05:02:01;;;;;;;4.53;1.73;;;;;;;16.81;68.09;101118.41;6242590;22;20012;-74
2022/10/16 05:04:27;;;;;;;4.40;1.80;;;;;;;16.96;67.94;101105.06;6247358;22;20116;-73
2022/10/16 05:06:52;;;;;;;5.13;1.70;;;;;;;17.10;67.86;101113.75;6247369;22;20011;-73
2022/10/16 05:09:17;;;;;;;4.93;1.55;;;;;;;17.01;68.63;101119.09;6243251;22;20047;-72
2022/10/16 05:11:43;;;;;;;4.90;1.60;;;;;;;16.83;69.40;101116.63;6242101;22;20027;-72
2022/10/16 05:14:08;;;;;;;7.15;2.08;;;;;;;16.75;69.72;101128.97;6242554;22;20117;-73
2022/10/16 05:16:34;;;;;;;6.55;1.80;;;;;;;16.73;70.49;101138.63;6246907;22;20007;-72
2022/10/16 05:18:59;;;;;;;5.32;1.77;;;;;;;16.92;69.50;101133.22;6248794;22;20126;-73
2022/10/16 05:21:24;;;;;;;5.72;2.17;;;;;;;17.03;69.59;101148.91;6218157;22;20007;-72
2022/10/16 05:23:50;;;;;;;5.63;1.98;;;;;;;16.90;69.75;101145.50;6247187;22;20334;-72
2022/10/16 05:26:15;;;;;;;5.75;1.90;;;;;;;16.87;69.58;101145.56;6244311;22;20086;-72
2022/10/16 05:28:40;;;;;;;4.50;2.05;;;;;;;16.88;70.58;101151.69;6247064;22;20003;-71
2022/10/16 05:31:08;;;;;;;6.93;1.98;;;;;;;16.81;70.70;101152.63;6248613;22;19999;-72
2022/10/16 05:33:34;;;;;;;6.72;2.10;;;;;;;16.76;71.07;101147.41;6212331;22;20034;-71
2022/10/16 05:36:04;;;;;;;4.97;2.30;;;;;;;16.55;71.99;101156.28;6250463;22;20443;-71
2022/10/16 05:38:30;;;;;;;8.30;2.20;;;;;;;16.53;72.52;101158.03;6243145;22;20004;-72
2022/10/16 05:40:56;;;;;;;5.82;2.20;;;;;;;16.75;71.45;101152.66;6248155;22;20003;-71
2022/10/16 05:43:22;;;;;;;5.53;2.13;;;;;;;16.82;71.11;101162.28;6244132;22;20003;-72
2022/10/16 05:46:06;;;;;;;6.05;2.20;;;;;;;16.77;71.35;101158.81;6245253;22;20174;-71
2022/10/16 05:48:32;;;;;;;4.27;2.00;;;;;;;16.73;71.36;101168.47;6250463;22;20004;-71
2022/10/16 05:51:03;;;;;;;5.55;2.33;;;;;;;16.74;71.38;101172.84;6245787;22;20008;-72
2022/10/16 05:53:32;;;;;;;9.85;2.30;;;;;;;16.67;71.49;101168.50;6215910;22;20057;-71
2022/10/16 05:55:58;;;;;;;5.45;2.40;;;;;;;16.71;71.63;101167.59;6246231;22;20062;-71
2022/10/16 05:58:24;;;;;;;5.65;2.42;;;;;;;16.71;71.12;101175.50;6219698;22;20064;-72
2022/10/16 06:01:01;;;;;;;5.35;2.13;;;;;;;16.58;71.72;101176.47;6250091;22;20003;-71
2022/10/16 06:03:26;;;;;;;4.80;2.30;;;;;;;16.40;72.32;101173.94;6238314;22;20399;-72
2022/10/16 06:05:52;;;;;;;5.47;2.40;;;;;;;16.39;72.33;101178.31;6248628;22;20020;-72
2022/10/16 06:08:19;;;;;;;6.35;2.30;;;;;;;16.53;72.05;101180.84;6246939;22;20019;-71
2022/10/16 06:10:45;;;;;;;5.03;2.20;;;;;;;16.53;71.79;101179.09;6248024;22;20070;-71
2022/10/16 06:13:12;;;;;;;7.82;2.40;;;;;;;16.59;71.50;101188.72;6249502;22;20012;-72
2022/10/16 06:15:38;;;;;;;6.70;2.25;;;;;;;16.36;72.28;101180.06;6240688;22;20290;-71
2022/10/16 06:18:05;;;;;;;7.95;2.38;;;;;;;16.48;72.00;101183.50;6251177;22;20391;-72
2022/10/16 06:20:30;;;;;;;4.97;2.08;;;;;;;16.54;71.77;101185.22;6242197;22;20011;-71
2022/10/16 06:22:56;;;;;;;5.78;2.20;;;;;;;16.46;71.88;101193.19;6245911;22;20555;-71
2022/10/16 06:25:21;;;;;;;5.90;2.20;;;;;;;16.49;71.69;101187.91;6218613;22;20008;-72
2022/10/16 06:27:47;;;;;;;8.15;2.10;;;;;;;16.49;71.82;101195.78;6243504;22;20008;-72
2022/10/16 06:30:12;;;;;;;4.68;1.90;;;;;;;16.45;71.93;101191.44;6248205;22;20371;-71
2022/10/16 06:32:38;;;;;;;4.25;1.70;;;;;;;16.57;71.28;101199.28;6217860;22;20031;-71
2022/10/16 06:35:03;;;;;;;6.00;1.90;;;;;;;16.57;71.36;101198.41;6248466;22;20065;-71
2022/10/16 06:37:28;;;;;;;5.70;2.03;;;;;;;16.54;71.11;101206.28;6240906;22;20502;-71
2022/10/16 06:39:54;;;;;;;7.15;1.92;;;;;;;16.55;70.44;101208.91;6246456;22;20008;-72
2022/10/16 06:42:19;;;;;;;6.30;1.60;;;;;;;16.50;71.19;101218.59;6247389;22;20008;-70
2022/10/16 06:44:45;;;;;;;7.78;1.80;;;;;;;16.58;70.45;101219.44;6216796;22;20482;-71
2022/10/16 06:47:10;;;;;;;5.55;1.60;;;;;;;16.50;70.35;101221.25;6250775;22;20382;-71
2022/10/16 06:49:36;;;;;;;7.93;1.98;;;;;;;16.61;70.37;101227.34;6239807;22;20386;-72
2022/10/16 06:52:01;;;;;;;7.47;1.60;;;;;;;16.78;69.34;101232.50;6247779;22;20077;-72
2022/10/16 06:54:27;;;;;;;6.80;1.50;;;;;;;16.59;69.76;101242.25;6216541;22;20061;-72
2022/10/16 06:56:56;;;;;;;4.57;1.83;;;;;;;16.43;70.52;101237.06;6244593;22;20073;-72
2022/10/16 06:59:21;;;;;;;7.18;1.60;;;;;;;16.21;70.78;101245.06;6216538;22;20003;-71
2022/10/16 07:01:47;;;;;;;10.27;1.80;;;;;;;16.56;70.14;101246.66;6245199;22;20083;-71
2022/10/16 07:04:12;;;;;;;3.40;1.83;;;;;;;16.39;70.72;101251.13;6246888;22;20008;-71
2022/10/16 07:06:38;;;;;;;6.95;2.00;;;;;;;16.52;70.02;101247.56;6249250;22;20016;-71
2022/10/16 07:09:06;;;;;;;7.47;1.83;;;;;;;16.60;69.88;101257.19;6244245;22;20007;-70
2022/10/16 07:11:32;;;;;;;4.05;1.70;;;;;;;16.54;70.46;101269.47;6245015;22;20000;-71
2022/10/16 07:13:58;;;;;;;6.10;2.00;;;;;;;16.66;69.96;101277.34;6244635;22;20014;-72
2022/10/16 07:16:26;;;;;;;6.03;2.00;;;;;;;16.80;69.73;101277.25;6249057;22;20031;-71
2022/10/16 07:18:57;;;;;;;5.70;1.98;;;;;;;16.71;70.10;101280.81;6250143;22;20081;-72
2022/10/16 07:21:25;;;;;;;4.57;2.00;;;;;;;16.65;70.27;101290.53;6216369;22;20015;-72
2022/10/16 07:23:52;;;;;;;4.85;1.83;;;;;;;16.81;69.90;101294.81;6243522;22;20010;-72
2022/10/16 07:26:17;;;;;;;8.82;2.28;;;;;;;16.94;69.70;101299.13;6244110;22;20015;-73
2022/10/16 07:28:43;;;;;;;6.32;2.40;;;;;;;16.91;69.59;101304.41;6249612;22;20019;-73
2022/10/16 07:31:11;;;;;;;7.07;2.42;;;;;;;16.77;69.99;101314.16;6222356;22;20042;-72
2022/10/16 07:33:38;;;;;;;7.30;2.25;;;;;;;16.63;70.81;101317.72;6237999;22;20376;-71
2022/10/16 07:36:04;;;;;;;6.80;2.08;;;;;;;16.76;70.27;101321.19;6248537;22;20035;-72
2022/10/16 07:38:30;;;;;;;5.40;2.10;;;;;;;16.96;70.22;101315.78;6246589;22;20078;-72
2022/10/16 07:40:57;;;;;;;7.40;2.00;;;;;;;16.98;69.94;101325.44;6248728;22;20313;-72
2022/10/16 07:43:23;;;;;;;9.07;2.10;;;;;;;17.03;69.76;101331.56;6241858;22;20343;-71
2022/10/16 07:45:49;;;;;;;7.00;2.00;;;;;;;16.85;70.58;101339.56;6245527;22;20011;-71
2022/10/16 07:48:16;;;;;;;8.32;1.80;;;;;;;17.26;69.20;101343.72;6250188;22;20253;-72
2022/10/16 07:50:42;;;;;;;6.65;1.95;;;;;;;17.30;68.85;101341.06;6246529;22;20193;-71
2022/10/16 07:53:07;;;;;;;5.35;1.73;;;;;;;17.34;68.92;101342.78;6246919;22;20348;-73
2022/10/16 07:55:33;;;;;;;5.95;1.77;;;;;;;17.41;68.55;101351.50;6242202;22;20596;-71
2022/10/16 07:57:58;;;;;;;6.18;1.90;;;;;;;17.21;69.46;101367.44;6248207;22;20000;-72
2022/10/16 08:00:23;;;;;;;7.43;1.90;;;;;;;17.38;68.91;101364.72;6250262;22;20476;-71
2022/10/16 08:02:49;;;;;;;5.53;1.85;;;;;;;17.55;68.13;101372.50;6214537;22;20431;-71
2022/10/16 08:05:14;;;;;;;4.55;1.75;;;;;;;17.71;67.63;101376.81;6250872;22;20019;-72
2022/10/16 08:07:39;;;;;;;8.35;1.83;;;;;;;17.67;67.67;101381.25;6212584;22;20131;-73
2022/10/16 08:10:05;;;;;;;7.93;1.95;;;;;;;17.77;66.85;101376.75;6218484;22;20012;-72
2022/10/16 08:12:31;;;;;;;7.80;1.80;;;;;;;17.45;67.90;101388.38;6246027;22;20004;-72
2022/10/16 08:14:56;;;;;;;8.02;1.60;;;;;;;17.49;68.89;101397.16;6243084;22;20041;-72
2022/10/16 08:17:21;;;;;;;9.60;1.90;;;;;;;17.75;67.73;101396.97;6245300;22;20015;-71
2022/10/16 08:19:47;;;;;;;6.60;1.60;;;;;;;17.87;67.42;101393.41;6245084;22;20015;-71
2022/10/16 08:22:14;;;;;;;7.00;1.73;;;;;;;17.70;67.57;101396.16;6241518;22;20003;-71
2022/10/16 08:24:40;;;;;;;6.30;1.65;;;;;;;17.92;67.01;101403.03;6244605;22;20346;-72
2022/10/16 08:27:06;;;;;;;11.25;1.83;;;;;;;18.07;66.12;101402.88;6243915;22;20339;-71
2022/10/16 08:29:31;;;;;;;5.70;1.48;;;;;;;18.06;66.12;101411.66;6232220;22;20221;-72
2022/10/16 08:31:57;;;;;;;8.05;1.70;;;;;;;18.12;66.08;101416.91;6222760;22;20475;-72
2022/10/16 08:34:22;;;;;;;5.53;1.70;;;;;;;18.32;66.10;101408.78;6237377;22;20091;-72
2022/10/16 08:36:47;;;;;;;4.82;1.42;;;;;;;18.24;65.78;101415.91;6246401;22;20135;-73
2022/10/16 08:39:13;;;;;;;5.40;1.52;;;;;;;18.38;65.88;101423.69;6246701;22;20046;-72
2022/10/16 08:42:00;;;;;;;6.53;1.83;;;;;;;18.30;65.38;101431.69;6248580;22;20031;-72
2022/10/16 08:44:35;;;;;;;9.20;1.75;;;;;;;18.44;65.25;101428.91;6230337;22;20351;-71
2022/10/16 08:47:04;;;;;;;7.07;1.60;;;;;;;18.42;65.46;101441.28;6246044;22;20014;-72
2022/10/16 08:49:30;;;;;;;5.97;1.55;;;;;;;18.59;64.81;101440.25;6246589;22;20442;-72
2022/10/16 08:51:57;;;;;;;6.25;1.70;;;;;;;18.27;65.48;101447.56;6242217;22;20014;-72
2022/10/16 08:54:34;;;;;;;8.93;1.85;;;;;;;18.41;65.41;101450.09;6242968;22;20127;-73
2022/10/16 08:57:09;;;;;;;9.40;1.67;;;;;;;18.28;64.96;101448.44;6245385;22;20012;-72
2022/10/16 08:59:34;;;;;;;11.43;1.92;;;;;;;18.17;66.02;101461.75;6217548;22;20093;-73
2022/10/16 09:02:01;;;;;;;9.35;1.80;;;;;;;18.36;65.14;101462.47;6245896;22;20008;-72
2022/10/16 09:04:54;;;;;;;6.45;1.90;;;;;;;18.61;64.75;101469.25;6237741;22;20494;-72
2022/10/16 09:07:26;;;;;;;7.30;2.10;;;;;;;18.94;63.85;101475.97;6220160;22;20067;-72
2022/10/16 09:10:04;;;;;;;8.95;2.00;;;;;;;18.85;63.99;101470.75;6217017;22;20012;-73
2022/10/16 09:12:37;;;;;;;12.25;2.30;;;;;;;18.93;63.59;101471.56;6238667;22;20022;-71
2022/10/16 09:15:20;;;;;;;8.23;2.58;;;;;;;19.02;63.20;101476.75;6240618;22;20027;-71
2022/10/16 09:17:59;;;;;;;9.57;2.17;;;;;;;19.15;62.66;101464.28;6245112;22;20561;-73
2022/10/16 09:20:53;;;;;;;10.77;2.15;;;;;;;19.51;61.37;101476.16;6238732;22;20419;-72
2022/10/16 09:23:26;;;;;;;10.88;2.15;;;;;;;19.21;61.82;101474.75;6245737;22;20004;-71
2022/10/16 09:25:53;;;;;;;8.02;2.22;;;;;;;18.85;63.94;101481.31;6246883;22;20436;-72
2022/10/16 09:28:20;;;;;;;12.20;2.60;;;;;;;18.89;62.80;101478.66;6244011;22;20361;-72
2022/10/16 09:30:48;;;;;;;10.18;2.15;;;;;;;19.03;62.67;101479.34;6247200;22;20014;-71
2022/10/16 09:33:14;;;;;;;12.13;2.47;;;;;;;19.11;61.83;101476.63;6238242;22;20077;-73
2022/10/16 09:35:47;;;;;;;11.23;2.25;;;;;;;19.65;60.64;101482.09;6246884;22;20142;-72
2022/10/16 09:38:24;;;;;;;8.15;2.00;;;;;;;19.45;62.46;101482.38;6220608;22;20418;-72
2022/10/16 09:40:50;;;;;;;10.27;2.35;;;;;;;19.21;62.88;101480.91;6241625;22;20008;-72
2022/10/16 09:43:28;;;;;;;8.85;2.28;;;;;;;19.49;62.27;101484.09;6242277;22;20308;-73
2022/10/16 09:45:56;;;;;;;9.38;2.20;;;;;;;18.97;62.30;101487.34;6247158;22;20126;-72
2022/10/16 09:48:22;;;;;;;9.18;1.92;;;;;;;19.14;62.34;101491.59;6237589;22;20465;-73
2022/10/16 09:50:59;;;;;;;9.98;2.10;;;;;;;19.58;61.64;101483.97;6243249;22;20234;-72
2022/10/16 09:53:37;;;;;;;11.55;2.05;;;;;;;19.32;61.07;101481.66;6240324;22;20522;-71
2022/10/16 09:56:05;;;;;;;10.10;2.10;;;;;;;19.39;60.78;101490.38;6242269;22;20065;-72
2022/10/16 09:58:32;;;;;;;11.23;2.03;;;;;;;19.28;61.07;101485.22;6239319;22;20031;-72
2022/10/16 10:00:58;;;;;;;12.52;2.13;;;;;;;19.38;60.92;101491.28;6245022;22;20061;-73
2022/10/16 10:03:44;;;;;;;12.40;2.20;;;;;;;19.06;61.82;101494.31;6247153;22;20451;-72
2022/10/16 10:06:28;;;;;;;8.77;1.70;;;;;;;19.06;61.60;101491.66;6245340;22;20516;-72
2022/10/16 10:08:58;;;;;;;6.93;1.50;;;;;;;19.12;61.14;101493.38;6249899;22;20348;-72
2022/10/16 10:11:49;;;;;;;10.80;1.90;;;;;;;19.01;60.79;101494.38;6244877;22;20106;-72
2022/10/16 10:14:20;;;;;;;15.98;1.80;;;;;;;19.16;59.38;101500.34;6246812;22;20007;-73
2022/10/16 10:16:46;;;;;;;8.55;1.90;;;;;;;19.17;60.06;101500.34;6218032;22;20008;-73
2022/10/16 10:19:23;;;;;;;12.30;2.20;;;;;;;19.18;58.98;101506.50;6248215;22;20057;-73
2022/10/16 10:21:50;;;;;;;7.82;1.70;;;;;;;19.11;58.26;101513.63;6224500;22;20012;-73
2022/10/16 10:24:17;;;;;;;9.63;1.80;;;;;;;19.45;56.85;101514.13;6245969;22;20245;-72
2022/10/16 10:27:08;;;;;;;11.65;1.70;;;;;;;19.45;55.44;101522.03;6244483;22;20022;-73
2022/10/16 10:29:42;;;;;;;9.10;1.30;;;;;;;19.21;52.24;101519.69;6244319;22;20385;-73
2022/10/16 10:32:30;;;;;;;14.00;1.70;;;;;;;19.41;53.35;101520.31;6244090;22;20414;-73
2022/10/16 10:35:14;;;;;;;10.88;1.65;;;;;;;19.39;52.72;101520.31;6217151;22;20496;-72
2022/10/16 10:37:51;;;;;;;10.20;1.65;;;;;;;19.37;53.68;101538.00;6251732;22;20094;-73
2022/10/16 10:40:49;;;;;;;8.70;1.45;;;;;;;19.32;53.48;101537.19;6222180;22;20008;-72
2022/10/16 10:43:28;;;;;;;9.55;1.48;;;;;;;19.09;51.73;101533.06;6250395;22;20063;-71
2022/10/16 10:46:00;;;;;;;9.07;1.70;;;;;;;19.36;53.30;101538.88;6251241;22;20056;-75
2022/10/16 10:48:45;;;;;;;9.90;1.52;;;;;;;19.73;53.12;101541.97;6238852;22;20019;-72
2022/10/16 10:51:17;;;;;;;10.27;1.70;;;;;;;19.67;53.85;101542.06;6220049;22;20011;-72
2022/10/16 10:53:49;;;;;;;15.90;1.80;;;;;;;19.86;55.34;101545.31;6241481;22;20016;-72
2022/10/16 10:56:41;;;;;;;12.00;1.58;;;;;;;19.97;52.88;101546.03;6247800;22;20008;-72
2022/10/16 10:59:14;;;;;;;11.07;1.80;;;;;;;19.99;53.91;101541.59;6242646;22;20019;-71
2022/10/16 11:02:21;;;;;;;11.63;2.00;;;;;;;19.72;53.15;101545.50;6247015;22;20824;-72
2022/10/16 11:05:01;;;;;;;11.45;1.60;;;;;;;19.59;51.83;101551.84;6206683;22;20065;-73
2022/10/16 11:07:43;;;;;;;8.95;1.58;;;;;;;20.18;50.64;101564.25;6247943;22;20016;-73
2022/10/16 11:10:15;;;;;;;8.60;1.83;;;;;;;19.77;54.08;101569.25;6249128;22;20261;-71
2022/10/16 11:12:45;;;;;;;8.98;1.67;;;;;;;19.70;50.53;101568.44;6237485;22;20014;-72
2022/10/16 11:15:24;;;;;;;9.50;1.50;;;;;;;19.74;51.29;101571.94;6247160;22;20011;-72
2022/10/16 11:18:01;;;;;;;10.82;1.73;;;;;;;19.62;49.00;101567.69;6242039;22;20489;-73
2022/10/16 11:20:31;;;;;;;8.70;1.90;;;;;;;20.10;48.77;101571.44;6227118;22;20019;-72
2022/10/16 11:23:10;;;;;;;13.27;2.03;;;;;;;20.11;49.16;101573.19;6241644;22;20008;-73
2022/10/16 11:25:36;;;;;;;10.50;1.65;;;;;;;20.41;50.50;101573.63;6245660;22;20054;-73
2022/10/16 11:28:11;;;;;;;7.95;1.73;;;;;;;20.77;48.97;101582.75;6247109;22;20398;-72
2022/10/16 11:30:46;;;;;;;10.15;1.70;;;;;;;20.39;48.79;101589.56;6210672;22;20008;-73
2022/10/16 11:33:24;;;;;;;10.35;1.92;;;;;;;20.31;46.48;101586.09;6248125;22;20220;-73
2022/10/16 11:36:14;;;;;;;9.35;1.30;;;;;;;20.08;47.02;101588.22;6242442;22;20069;-73